Soul City, North Carolina
Current Conditions -  °F | °C
As of 10:55 AM on Thursday 27 Nov 2014 (Local Time) from KHNZ Reporting Station
Drizzle Drizzle  
Wind Chill: 41°   Ceiling: 2800
Heat Index: 41°   Visibility: 10mi
Dew Point: 39°   Wind: 3mph
Humidity: 92%   Direction: 20°NNE
Pressure: 30.04"   Gusts: NA
Location:  36.4679°N, 78.2938°W
Report Text: KHNZ 271555Z AUTO 02003KT 10SM -DZ SCT006 BKN028 OVC048 05/04 A3004 RMK AO2 P0001 T00520040
Loading
Personal Weather Stations






























Interactive Weather Map New forecast layout! Learn more

10-Day Weather Forecast

Advertisements
Track Severe Weather on mobile